Portada
METAR-TAF:

METAR-TAF

Aeroports :

Blacksburg, Virgínia, Estats Units d'Amèrica

latitud: 37-13N, longitud: 080-25W, altitud: 650 m

Observació

L'informe es va fer fa 1 hora i 0 minuts, a les 21:35 UTC
Vent 6 kt del Est/Sud-Est
Temperatura 1°C
Humitat 34%
Pressió 1026 hPa
Visibilitat: 16.1 km
Cel clar

METAR: KBCB 132135Z AUTO 12006KT 10SM CLR 01/M13 A3030 RMK AO2 T00131132

Hora: 17:35 (22:35 UTC)

Pronòstic

L'informe es va fer fa 5 hores i 9 minuts, a les 17:26 UTC
Pronòstic vàlid del 13 a les 18 UTC al 14 a les 18 UTC
Vent 5 kt del Est/Sud-Est
Visibilitat: 10 km
Escasses núvols a una alçada de 25000 ft
A partir de les 13 a les 2300 UTC
Vent 3 kt amb direcció variable
Visibilitat: 10 km
Núvols disperses a una alçada de 25000 ft
A partir de les 14 a les 1700 UTC
Vent 7 kt del Oest/Sud-Oest
Visibilitat: 10 km
Cel ennuvolat a una alçada de 15000 ft

TAF: KBCB 131726Z 1318/1418 12005KT P6SM FEW250 FM132300 VRB03KT P6SM SCT250 FM141700 25007KT P6SM BKN150

Observacions i pronòstics meteorològics de més de 4000 aeroports (METAR i TAF).

Les estacions disponibles són els punts grocs i vermells al mapa.

Posi el ratolí al punt desitjat per veure el nom de l'estació.

Feu clic per veure les observacions i els pronòstics meteorològics.

Per canviar el mapa: feu clic els botons verds amb una creu de color negre per apropar; al botó verd amb un guió per allunyar la imatge; o en les fletxes verdes per a mapes adjacents.


METAR-TAF: